sensor_id;sensor_type;location;lat;lon;timestamp;P1;durP1;ratioP1;P2;durP2;ratioP2
4808;SDS011;2418;49.930;8.606;2022-10-31T00:02:07;22.97;;;13.70;;
4808;SDS011;2418;49.930;8.606;2022-10-31T00:04:33;35.17;;;13.43;;
4808;SDS011;2418;49.930;8.606;2022-10-31T00:06:58;18.03;;;11.50;;
4808;SDS011;2418;49.930;8.606;2022-10-31T00:09:24;22.90;;;12.27;;
4808;SDS011;2418;49.930;8.606;2022-10-31T00:11:49;24.10;;;12.07;;
4808;SDS011;2418;49.930;8.606;2022-10-31T00:14:15;21.45;;;11.70;;
4808;SDS011;2418;49.930;8.606;2022-10-31T00:16:40;18.48;;;11.00;;
4808;SDS011;2418;49.930;8.606;2022-10-31T00:19:06;18.60;;;11.15;;
4808;SDS011;2418;49.930;8.606;2022-10-31T00:21:33;20.67;;;10.90;;
4808;SDS011;2418;49.930;8.606;2022-10-31T00:23:59;19.48;;;11.10;;
4808;SDS011;2418;49.930;8.606;2022-10-31T00:26:32;25.30;;;11.50;;
4808;SDS011;2418;49.930;8.606;2022-10-31T00:28:58;26.93;;;13.00;;
4808;SDS011;2418;49.930;8.606;2022-10-31T00:31:24;19.83;;;12.20;;
4808;SDS011;2418;49.930;8.606;2022-10-31T00:33:49;29.97;;;12.23;;
4808;SDS011;2418;49.930;8.606;2022-10-31T00:36:18;27.90;;;13.07;;
4808;SDS011;2418;49.930;8.606;2022-10-31T00:38:45;23.85;;;11.85;;
4808;SDS011;2418;49.930;8.606;2022-10-31T00:41:12;17.52;;;12.20;;
4808;SDS011;2418;49.930;8.606;2022-10-31T00:43:40;29.50;;;12.38;;
4808;SDS011;2418;49.930;8.606;2022-10-31T00:46:06;16.58;;;12.40;;
4808;SDS011;2418;49.930;8.606;2022-10-31T00:48:32;22.23;;;12.30;;
4808;SDS011;2418;49.930;8.606;2022-10-31T00:50:57;31.17;;;13.30;;
4808;SDS011;2418;49.930;8.606;2022-10-31T00:53:23;27.70;;;13.13;;
4808;SDS011;2418;49.930;8.606;2022-10-31T00:55:48;27.27;;;12.40;;
4808;SDS011;2418;49.930;8.606;2022-10-31T00:58:14;26.00;;;11.17;;
4808;SDS011;2418;49.930;8.606;2022-10-31T01:00:40;27.73;;;12.20;;
4808;SDS011;2418;49.930;8.606;2022-10-31T01:03:05;21.27;;;11.77;;
4808;SDS011;2418;49.930;8.606;2022-10-31T01:05:31;27.40;;;12.30;;
4808;SDS011;2418;49.930;8.606;2022-10-31T01:07:57;24.87;;;12.23;;
4808;SDS011;2418;49.930;8.606;2022-10-31T01:10:23;25.80;;;12.20;;
4808;SDS011;2418;49.930;8.606;2022-10-31T01:12:49;27.05;;;13.18;;
4808;SDS011;2418;49.930;8.606;2022-10-31T01:15:20;24.98;;;12.82;;
4808;SDS011;2418;49.930;8.606;2022-10-31T01:17:47;18.05;;;12.68;;
4808;SDS011;2418;49.930;8.606;2022-10-31T01:20:13;21.75;;;12.63;;
4808;SDS011;2418;49.930;8.606;2022-10-31T01:22:40;23.98;;;12.18;;
4808;SDS011;2418;49.930;8.606;2022-10-31T01:25:06;22.17;;;12.73;;
4808;SDS011;2418;49.930;8.606;2022-10-31T01:27:32;36.17;;;12.90;;
4808;SDS011;2418;49.930;8.606;2022-10-31T01:29:58;18.58;;;12.45;;
4808;SDS011;2418;49.930;8.606;2022-10-31T01:32:23;22.57;;;11.73;;
4808;SDS011;2418;49.930;8.606;2022-10-31T01:34:49;27.23;;;12.73;;
4808;SDS011;2418;49.930;8.606;2022-10-31T01:37:15;26.70;;;12.30;;
4808;SDS011;2418;49.930;8.606;2022-10-31T01:39:41;23.87;;;13.77;;
4808;SDS011;2418;49.930;8.606;2022-10-31T01:42:06;22.20;;;12.40;;
4808;SDS011;2418;49.930;8.606;2022-10-31T01:47:25;24.85;;;11.73;;
4808;SDS011;2418;49.930;8.606;2022-10-31T01:49:57;28.27;;;12.50;;
4808;SDS011;2418;49.930;8.606;2022-10-31T01:52:25;20.77;;;12.27;;
4808;SDS011;2418;49.930;8.606;2022-10-31T01:55:02;20.45;;;12.20;;
4808;SDS011;2418;49.930;8.606;2022-10-31T01:57:34;26.50;;;12.70;;
4808;SDS011;2418;49.930;8.606;2022-10-31T02:00:06;33.20;;;13.02;;
4808;SDS011;2418;49.930;8.606;2022-10-31T02:02:33;19.85;;;12.27;;
4808;SDS011;2418;49.930;8.606;2022-10-31T02:05:00;23.55;;;12.70;;
4808;SDS011;2418;49.930;8.606;2022-10-31T02:07:31;30.25;;;12.75;;
4808;SDS011;2418;49.930;8.606;2022-10-31T02:10:02;23.75;;;12.40;;
4808;SDS011;2418;49.930;8.606;2022-10-31T02:12:29;24.25;;;12.50;;
4808;SDS011;2418;49.930;8.606;2022-10-31T02:14:56;29.15;;;12.20;;
4808;SDS011;2418;49.930;8.606;2022-10-31T02:17:23;23.48;;;12.60;;
4808;SDS011;2418;49.930;8.606;2022-10-31T02:30:11;31.30;;;13.27;;
4808;SDS011;2418;49.930;8.606;2022-10-31T02:35:22;28.15;;;12.93;;
4808;SDS011;2418;49.930;8.606;2022-10-31T02:38:14;25.25;;;13.48;;
4808;SDS011;2418;49.930;8.606;2022-10-31T02:40:57;23.00;;;12.88;;
4808;SDS011;2418;49.930;8.606;2022-10-31T02:46:34;26.83;;;12.10;;
4808;SDS011;2418;49.930;8.606;2022-10-31T02:50:23;30.17;;;11.30;;
4808;SDS011;2418;49.930;8.606;2022-10-31T02:52:26;31.08;;;13.18;;
4808;SDS011;2418;49.930;8.606;2022-10-31T02:54:53;27.42;;;11.60;;
4808;SDS011;2418;49.930;8.606;2022-10-31T02:57:20;20.23;;;11.45;;
4808;SDS011;2418;49.930;8.606;2022-10-31T02:59:57;22.60;;;13.07;;
4808;SDS011;2418;49.930;8.606;2022-10-31T03:05:10;21.80;;;11.63;;
4808;SDS011;2418;49.930;8.606;2022-10-31T03:13:33;24.23;;;12.30;;
4808;SDS011;2418;49.930;8.606;2022-10-31T03:18:34;36.13;;;13.63;;
4808;SDS011;2418;49.930;8.606;2022-10-31T03:21:10;18.25;;;12.63;;
4808;SDS011;2418;49.930;8.606;2022-10-31T03:23:39;25.98;;;14.27;;
4808;SDS011;2418;49.930;8.606;2022-10-31T03:26:07;29.00;;;14.40;;
4808;SDS011;2418;49.930;8.606;2022-10-31T03:28:38;28.92;;;15.20;;
4808;SDS011;2418;49.930;8.606;2022-10-31T03:31:16;27.97;;;14.53;;
4808;SDS011;2418;49.930;8.606;2022-10-31T03:33:43;25.98;;;16.42;;
4808;SDS011;2418;49.930;8.606;2022-10-31T03:36:11;30.83;;;15.90;;
4808;SDS011;2418;49.930;8.606;2022-10-31T03:38:40;39.13;;;16.97;;
4808;SDS011;2418;49.930;8.606;2022-10-31T03:41:09;34.90;;;17.15;;
4808;SDS011;2418;49.930;8.606;2022-10-31T03:43:40;34.30;;;16.98;;
4808;SDS011;2418;49.930;8.606;2022-10-31T03:46:13;26.60;;;16.83;;
4808;SDS011;2418;49.930;8.606;2022-10-31T03:48:38;29.07;;;17.43;;
4808;SDS011;2418;49.930;8.606;2022-10-31T03:51:11;30.17;;;17.83;;
4808;SDS011;2418;49.930;8.606;2022-10-31T03:56:31;25.50;;;15.90;;
4808;SDS011;2418;49.930;8.606;2022-10-31T03:59:07;27.67;;;17.10;;
4808;SDS011;2418;49.930;8.606;2022-10-31T04:01:39;30.00;;;17.05;;
4808;SDS011;2418;49.930;8.606;2022-10-31T04:04:08;23.83;;;16.40;;
4808;SDS011;2418;49.930;8.606;2022-10-31T04:06:35;33.67;;;17.20;;
4808;SDS011;2418;49.930;8.606;2022-10-31T04:09:03;29.60;;;17.23;;
4808;SDS011;2418;49.930;8.606;2022-10-31T04:11:33;34.80;;;17.25;;
4808;SDS011;2418;49.930;8.606;2022-10-31T04:14:02;26.70;;;16.63;;
4808;SDS011;2418;49.930;8.606;2022-10-31T04:16:30;39.67;;;18.00;;
4808;SDS011;2418;49.930;8.606;2022-10-31T04:18:56;39.50;;;19.43;;
4808;SDS011;2418;49.930;8.606;2022-10-31T04:21:26;29.57;;;17.80;;
4808;SDS011;2418;49.930;8.606;2022-10-31T04:23:53;31.88;;;17.38;;
4808;SDS011;2418;49.930;8.606;2022-10-31T04:26:19;31.85;;;17.02;;
4808;SDS011;2418;49.930;8.606;2022-10-31T04:28:45;32.05;;;18.38;;
4808;SDS011;2418;49.930;8.606;2022-10-31T04:31:11;28.85;;;17.23;;
4808;SDS011;2418;49.930;8.606;2022-10-31T04:33:37;39.10;;;18.57;;
4808;SDS011;2418;49.930;8.606;2022-10-31T04:36:03;44.70;;;18.20;;
4808;SDS011;2418;49.930;8.606;2022-10-31T04:38:29;29.15;;;16.67;;
4808;SDS011;2418;49.930;8.606;2022-10-31T04:40:55;34.80;;;17.13;;
4808;SDS011;2418;49.930;8.606;2022-10-31T04:43:21;28.20;;;16.10;;
4808;SDS011;2418;49.930;8.606;2022-10-31T04:45:47;29.98;;;16.27;;
4808;SDS011;2418;49.930;8.606;2022-10-31T04:48:12;25.10;;;15.50;;
4808;SDS011;2418;49.930;8.606;2022-10-31T04:50:38;31.25;;;15.35;;
4808;SDS011;2418;49.930;8.606;2022-10-31T04:53:06;23.70;;;16.52;;
4808;SDS011;2418;49.930;8.606;2022-10-31T04:55:32;30.10;;;15.95;;
4808;SDS011;2418;49.930;8.606;2022-10-31T04:57:57;28.73;;;16.20;;
4808;SDS011;2418;49.930;8.606;2022-10-31T05:00:23;30.65;;;16.30;;
4808;SDS011;2418;49.930;8.606;2022-10-31T05:02:53;29.63;;;17.45;;
4808;SDS011;2418;49.930;8.606;2022-10-31T05:05:21;38.72;;;17.33;;
4808;SDS011;2418;49.930;8.606;2022-10-31T05:07:49;37.80;;;16.97;;
4808;SDS011;2418;49.930;8.606;2022-10-31T05:10:19;29.17;;;16.90;;
4808;SDS011;2418;49.930;8.606;2022-10-31T05:12:47;32.20;;;16.13;;
4808;SDS011;2418;49.930;8.606;2022-10-31T05:15:17;27.17;;;16.80;;
4808;SDS011;2418;49.930;8.606;2022-10-31T05:17:44;35.28;;;17.30;;
4808;SDS011;2418;49.930;8.606;2022-10-31T05:20:10;34.03;;;17.58;;
4808;SDS011;2418;49.930;8.606;2022-10-31T05:22:37;30.45;;;17.17;;
4808;SDS011;2418;49.930;8.606;2022-10-31T05:25:07;28.88;;;18.05;;
4808;SDS011;2418;49.930;8.606;2022-10-31T05:27:33;29.87;;;18.40;;
4808;SDS011;2418;49.930;8.606;2022-10-31T05:29:59;30.00;;;19.30;;
4808;SDS011;2418;49.930;8.606;2022-10-31T05:32:24;31.50;;;20.20;;
4808;SDS011;2418;49.930;8.606;2022-10-31T05:34:50;39.80;;;18.87;;
4808;SDS011;2418;49.930;8.606;2022-10-31T05:37:15;32.30;;;18.50;;
4808;SDS011;2418;49.930;8.606;2022-10-31T05:39:41;33.45;;;17.95;;
4808;SDS011;2418;49.930;8.606;2022-10-31T05:42:07;42.00;;;18.40;;
4808;SDS011;2418;49.930;8.606;2022-10-31T05:44:33;34.03;;;19.47;;
4808;SDS011;2418;49.930;8.606;2022-10-31T05:46:58;29.47;;;18.40;;
4808;SDS011;2418;49.930;8.606;2022-10-31T05:49:24;36.57;;;18.00;;
4808;SDS011;2418;49.930;8.606;2022-10-31T05:51:49;38.93;;;19.43;;
4808;SDS011;2418;49.930;8.606;2022-10-31T05:54:15;30.67;;;18.30;;
4808;SDS011;2418;49.930;8.606;2022-10-31T05:56:40;38.30;;;18.10;;
4808;SDS011;2418;49.930;8.606;2022-10-31T05:59:06;31.38;;;18.35;;
4808;SDS011;2418;49.930;8.606;2022-10-31T06:01:33;33.10;;;19.00;;
4808;SDS011;2418;49.930;8.606;2022-10-31T06:04:00;32.42;;;18.92;;
4808;SDS011;2418;49.930;8.606;2022-10-31T06:06:25;33.90;;;20.20;;
4808;SDS011;2418;49.930;8.606;2022-10-31T06:08:52;41.17;;;20.50;;
4808;SDS011;2418;49.930;8.606;2022-10-31T06:11:19;36.03;;;19.58;;
4808;SDS011;2418;49.930;8.606;2022-10-31T06:13:45;43.35;;;21.10;;
4808;SDS011;2418;49.930;8.606;2022-10-31T06:16:11;36.75;;;19.42;;
4808;SDS011;2418;49.930;8.606;2022-10-31T06:18:37;34.83;;;19.73;;
4808;SDS011;2418;49.930;8.606;2022-10-31T06:21:02;43.93;;;19.13;;
4808;SDS011;2418;49.930;8.606;2022-10-31T06:23:28;29.63;;;17.58;;
4808;SDS011;2418;49.930;8.606;2022-10-31T06:25:55;31.52;;;16.38;;
4808;SDS011;2418;49.930;8.606;2022-10-31T06:28:20;26.17;;;16.60;;
4808;SDS011;2418;49.930;8.606;2022-10-31T06:30:46;30.43;;;16.63;;
4808;SDS011;2418;49.930;8.606;2022-10-31T06:33:11;30.33;;;16.23;;
4808;SDS011;2418;49.930;8.606;2022-10-31T06:35:38;27.50;;;16.08;;
4808;SDS011;2418;49.930;8.606;2022-10-31T06:38:12;32.50;;;16.67;;
4808;SDS011;2418;49.930;8.606;2022-10-31T06:40:37;28.58;;;15.85;;
4808;SDS011;2418;49.930;8.606;2022-10-31T06:43:03;26.53;;;16.57;;
4808;SDS011;2418;49.930;8.606;2022-10-31T06:45:31;27.88;;;16.25;;
4808;SDS011;2418;49.930;8.606;2022-10-31T06:47:57;24.60;;;16.40;;
4808;SDS011;2418;49.930;8.606;2022-10-31T06:50:24;27.48;;;16.10;;
4808;SDS011;2418;49.930;8.606;2022-10-31T06:52:53;35.35;;;17.00;;
4808;SDS011;2418;49.930;8.606;2022-10-31T06:55:21;29.33;;;18.30;;
4808;SDS011;2418;49.930;8.606;2022-10-31T06:58:05;27.58;;;17.33;;
4808;SDS011;2418;49.930;8.606;2022-10-31T07:00:33;24.90;;;16.60;;
4808;SDS011;2418;49.930;8.606;2022-10-31T07:03:00;30.00;;;19.92;;
4808;SDS011;2418;49.930;8.606;2022-10-31T07:05:30;35.33;;;18.15;;
4808;SDS011;2418;49.930;8.606;2022-10-31T07:07:57;27.93;;;17.47;;
4808;SDS011;2418;49.930;8.606;2022-10-31T07:10:25;27.02;;;16.20;;
4808;SDS011;2418;49.930;8.606;2022-10-31T07:12:56;27.17;;;15.77;;
4808;SDS011;2418;49.930;8.606;2022-10-31T07:15:24;34.90;;;15.68;;
4808;SDS011;2418;49.930;8.606;2022-10-31T07:17:51;21.80;;;13.85;;
4808;SDS011;2418;49.930;8.606;2022-10-31T07:20:16;22.40;;;13.67;;
4808;SDS011;2418;49.930;8.606;2022-10-31T07:22:42;23.05;;;13.77;;
4808;SDS011;2418;49.930;8.606;2022-10-31T07:25:11;22.98;;;13.88;;
4808;SDS011;2418;49.930;8.606;2022-10-31T07:27:40;29.08;;;14.63;;
4808;SDS011;2418;49.930;8.606;2022-10-31T07:30:08;26.35;;;14.70;;
4808;SDS011;2418;49.930;8.606;2022-10-31T07:32:42;29.58;;;13.90;;
4808;SDS011;2418;49.930;8.606;2022-10-31T07:35:16;21.80;;;14.45;;
4808;SDS011;2418;49.930;8.606;2022-10-31T07:37:46;25.40;;;14.23;;
4808;SDS011;2418;49.930;8.606;2022-10-31T07:40:13;27.58;;;13.57;;
4808;SDS011;2418;49.930;8.606;2022-10-31T07:42:40;24.55;;;13.82;;
4808;SDS011;2418;49.930;8.606;2022-10-31T07:45:08;28.85;;;13.85;;
4808;SDS011;2418;49.930;8.606;2022-10-31T07:50:15;20.98;;;12.38;;
4808;SDS011;2418;49.930;8.606;2022-10-31T07:52:42;21.80;;;12.80;;
4808;SDS011;2418;49.930;8.606;2022-10-31T07:55:08;21.45;;;13.55;;
4808;SDS011;2418;49.930;8.606;2022-10-31T07:57:34;18.30;;;12.10;;
4808;SDS011;2418;49.930;8.606;2022-10-31T08:00:02;18.33;;;11.38;;
4808;SDS011;2418;49.930;8.606;2022-10-31T08:02:29;17.30;;;11.25;;
4808;SDS011;2418;49.930;8.606;2022-10-31T08:04:54;21.83;;;11.13;;
4808;SDS011;2418;49.930;8.606;2022-10-31T08:07:20;17.77;;;11.10;;
4808;SDS011;2418;49.930;8.606;2022-10-31T08:09:47;17.13;;;10.70;;
4808;SDS011;2418;49.930;8.606;2022-10-31T08:12:12;17.40;;;10.07;;
4808;SDS011;2418;49.930;8.606;2022-10-31T08:14:38;13.57;;;10.15;;
4808;SDS011;2418;49.930;8.606;2022-10-31T08:17:03;17.15;;;10.07;;
4808;SDS011;2418;49.930;8.606;2022-10-31T08:19:29;15.90;;;9.98;;
4808;SDS011;2418;49.930;8.606;2022-10-31T08:21:54;14.80;;;9.10;;
4808;SDS011;2418;49.930;8.606;2022-10-31T08:24:21;15.68;;;9.65;;
4808;SDS011;2418;49.930;8.606;2022-10-31T08:26:47;14.93;;;9.10;;
4808;SDS011;2418;49.930;8.606;2022-10-31T08:29:13;14.52;;;9.00;;
4808;SDS011;2418;49.930;8.606;2022-10-31T08:31:40;9.77;;;8.00;;
4808;SDS011;2418;49.930;8.606;2022-10-31T08:34:06;11.95;;;8.07;;
4808;SDS011;2418;49.930;8.606;2022-10-31T08:36:32;13.87;;;8.60;;
4808;SDS011;2418;49.930;8.606;2022-10-31T08:38:59;13.52;;;9.02;;
4808;SDS011;2418;49.930;8.606;2022-10-31T08:41:25;15.02;;;9.45;;
4808;SDS011;2418;49.930;8.606;2022-10-31T08:43:51;10.23;;;8.40;;
4808;SDS011;2418;49.930;8.606;2022-10-31T08:46:16;13.03;;;9.40;;
4808;SDS011;2418;49.930;8.606;2022-10-31T08:48:42;13.45;;;8.15;;
4808;SDS011;2418;49.930;8.606;2022-10-31T08:51:09;14.20;;;8.90;;
4808;SDS011;2418;49.930;8.606;2022-10-31T08:53:35;17.13;;;8.25;;
4808;SDS011;2418;49.930;8.606;2022-10-31T08:56:00;9.50;;;7.93;;
4808;SDS011;2418;49.930;8.606;2022-10-31T08:58:26;14.82;;;8.68;;
4808;SDS011;2418;49.930;8.606;2022-10-31T09:00:52;12.73;;;8.27;;
4808;SDS011;2418;49.930;8.606;2022-10-31T09:03:23;13.38;;;8.95;;
4808;SDS011;2418;49.930;8.606;2022-10-31T09:05:54;12.10;;;8.52;;
4808;SDS011;2418;49.930;8.606;2022-10-31T09:08:21;15.13;;;9.00;;
4808;SDS011;2418;49.930;8.606;2022-10-31T09:10:47;14.57;;;8.20;;
4808;SDS011;2418;49.930;8.606;2022-10-31T09:13:14;12.77;;;7.88;;
4808;SDS011;2418;49.930;8.606;2022-10-31T09:15:44;11.48;;;8.40;;
4808;SDS011;2418;49.930;8.606;2022-10-31T09:18:13;13.93;;;8.50;;
4808;SDS011;2418;49.930;8.606;2022-10-31T09:20:42;15.80;;;9.52;;
4808;SDS011;2418;49.930;8.606;2022-10-31T09:23:16;12.00;;;8.83;;
4808;SDS011;2418;49.930;8.606;2022-10-31T09:25:46;23.15;;;9.65;;
4808;SDS011;2418;49.930;8.606;2022-10-31T09:28:13;14.50;;;8.52;;
4808;SDS011;2418;49.930;8.606;2022-10-31T09:30:40;10.77;;;8.90;;
4808;SDS011;2418;49.930;8.606;2022-10-31T09:33:11;16.20;;;8.50;;
4808;SDS011;2418;49.930;8.606;2022-10-31T09:35:38;15.75;;;8.65;;
4808;SDS011;2418;49.930;8.606;2022-10-31T09:38:05;15.40;;;8.50;;
4808;SDS011;2418;49.930;8.606;2022-10-31T09:40:41;13.25;;;9.05;;
4808;SDS011;2418;49.930;8.606;2022-10-31T09:51:47;18.00;;;9.00;;
4808;SDS011;2418;49.930;8.606;2022-10-31T09:54:20;11.68;;;9.13;;
4808;SDS011;2418;49.930;8.606;2022-10-31T09:56:52;12.60;;;8.98;;
4808;SDS011;2418;49.930;8.606;2022-10-31T09:59:25;10.93;;;9.27;;
4808;SDS011;2418;49.930;8.606;2022-10-31T10:02:09;17.85;;;9.13;;
4808;SDS011;2418;49.930;8.606;2022-10-31T10:04:58;13.85;;;8.48;;
4808;SDS011;2418;49.930;8.606;2022-10-31T10:07:30;14.40;;;8.65;;
4808;SDS011;2418;49.930;8.606;2022-10-31T10:09:59;14.95;;;8.43;;
4808;SDS011;2418;49.930;8.606;2022-10-31T10:15:24;15.48;;;8.48;;
4808;SDS011;2418;49.930;8.606;2022-10-31T10:18:11;15.02;;;8.43;;
4808;SDS011;2418;49.930;8.606;2022-10-31T10:23:41;14.32;;;8.88;;
4808;SDS011;2418;49.930;8.606;2022-10-31T10:28:45;14.95;;;8.80;;
4808;SDS011;2418;49.930;8.606;2022-10-31T10:31:15;9.95;;;8.48;;
4808;SDS011;2418;49.930;8.606;2022-10-31T10:36:52;18.25;;;8.60;;
4808;SDS011;2418;49.930;8.606;2022-10-31T10:39:43;13.30;;;7.97;;
4808;SDS011;2418;49.930;8.606;2022-10-31T10:42:13;13.32;;;8.68;;
4808;SDS011;2418;49.930;8.606;2022-10-31T10:44:58;23.60;;;8.50;;
4808;SDS011;2418;49.930;8.606;2022-10-31T10:47:45;14.88;;;8.23;;
4808;SDS011;2418;49.930;8.606;2022-10-31T10:50:20;15.93;;;8.52;;
4808;SDS011;2418;49.930;8.606;2022-10-31T10:55:32;14.38;;;8.40;;
4808;SDS011;2418;49.930;8.606;2022-10-31T10:58:03;11.68;;;8.30;;
4808;SDS011;2418;49.930;8.606;2022-10-31T11:00:43;12.57;;;7.55;;
4808;SDS011;2418;49.930;8.606;2022-10-31T11:03:11;10.75;;;7.53;;
4808;SDS011;2418;49.930;8.606;2022-10-31T11:05:51;14.02;;;8.63;;
4808;SDS011;2418;49.930;8.606;2022-10-31T11:08:27;12.10;;;7.30;;
4808;SDS011;2418;49.930;8.606;2022-10-31T11:11:38;18.38;;;7.57;;
4808;SDS011;2418;49.930;8.606;2022-10-31T11:14:05;15.63;;;8.32;;
4808;SDS011;2418;49.930;8.606;2022-10-31T11:16:40;12.70;;;7.20;;
4808;SDS011;2418;49.930;8.606;2022-10-31T11:19:13;11.35;;;7.50;;
4808;SDS011;2418;49.930;8.606;2022-10-31T11:21:44;16.23;;;7.38;;
4808;SDS011;2418;49.930;8.606;2022-10-31T11:26:38;10.43;;;6.75;;
4808;SDS011;2418;49.930;8.606;2022-10-31T11:29:05;9.68;;;6.63;;
4808;SDS011;2418;49.930;8.606;2022-10-31T11:31:38;12.07;;;7.03;;
4808;SDS011;2418;49.930;8.606;2022-10-31T11:34:06;13.25;;;6.95;;
4808;SDS011;2418;49.930;8.606;2022-10-31T11:36:41;10.57;;;6.65;;
4808;SDS011;2418;49.930;8.606;2022-10-31T11:39:17;10.45;;;6.18;;
4808;SDS011;2418;49.930;8.606;2022-10-31T11:41:47;9.00;;;6.68;;
4808;SDS011;2418;49.930;8.606;2022-10-31T11:44:26;12.52;;;7.15;;
4808;SDS011;2418;49.930;8.606;2022-10-31T11:46:54;16.25;;;6.10;;
4808;SDS011;2418;49.930;8.606;2022-10-31T11:51:58;13.85;;;6.50;;
4808;SDS011;2418;49.930;8.606;2022-10-31T11:54:44;11.90;;;6.57;;
4808;SDS011;2418;49.930;8.606;2022-10-31T11:59:54;13.37;;;7.10;;
4808;SDS011;2418;49.930;8.606;2022-10-31T12:02:30;15.65;;;6.78;;
4808;SDS011;2418;49.930;8.606;2022-10-31T12:05:10;16.02;;;6.43;;
4808;SDS011;2418;49.930;8.606;2022-10-31T12:07:46;12.18;;;5.95;;
4808;SDS011;2418;49.930;8.606;2022-10-31T12:10:13;7.95;;;5.40;;
4808;SDS011;2418;49.930;8.606;2022-10-31T12:15:20;12.07;;;6.35;;
4808;SDS011;2418;49.930;8.606;2022-10-31T12:18:12;12.77;;;5.57;;
4808;SDS011;2418;49.930;8.606;2022-10-31T12:45:57;13.10;;;6.90;;
4808;SDS011;2418;49.930;8.606;2022-10-31T12:48:30;12.15;;;6.22;;
4808;SDS011;2418;49.930;8.606;2022-10-31T12:51:08;9.88;;;5.85;;
4808;SDS011;2418;49.930;8.606;2022-10-31T12:54:00;9.40;;;6.00;;
4808;SDS011;2418;49.930;8.606;2022-10-31T12:59:37;12.55;;;5.82;;
4808;SDS011;2418;49.930;8.606;2022-10-31T13:02:26;7.93;;;5.57;;
4808;SDS011;2418;49.930;8.606;2022-10-31T13:05:28;9.05;;;5.30;;
4808;SDS011;2418;49.930;8.606;2022-10-31T13:16:07;8.65;;;5.45;;
4808;SDS011;2418;49.930;8.606;2022-10-31T13:21:21;14.57;;;5.37;;
4808;SDS011;2418;49.930;8.606;2022-10-31T13:23:50;11.50;;;5.57;;
4808;SDS011;2418;49.930;8.606;2022-10-31T13:26:20;10.15;;;5.40;;
4808;SDS011;2418;49.930;8.606;2022-10-31T13:31:34;19.33;;;6.00;;
4808;SDS011;2418;49.930;8.606;2022-10-31T13:34:01;11.47;;;5.70;;
4808;SDS011;2418;49.930;8.606;2022-10-31T13:36:36;12.57;;;5.30;;
4808;SDS011;2418;49.930;8.606;2022-10-31T13:44:27;12.32;;;5.43;;
4808;SDS011;2418;49.930;8.606;2022-10-31T13:46:55;11.10;;;5.70;;
4808;SDS011;2418;49.930;8.606;2022-10-31T13:54:35;9.20;;;6.05;;
4808;SDS011;2418;49.930;8.606;2022-10-31T13:57:16;12.48;;;5.35;;
4808;SDS011;2418;49.930;8.606;2022-10-31T13:59:50;6.30;;;5.70;;
4808;SDS011;2418;49.930;8.606;2022-10-31T14:02:24;16.77;;;5.80;;
4808;SDS011;2418;49.930;8.606;2022-10-31T14:05:01;7.35;;;5.88;;
4808;SDS011;2418;49.930;8.606;2022-10-31T14:07:30;10.30;;;5.65;;
4808;SDS011;2418;49.930;8.606;2022-10-31T14:12:33;12.68;;;6.00;;
4808;SDS011;2418;49.930;8.606;2022-10-31T14:22:44;15.52;;;6.65;;
4808;SDS011;2418;49.930;8.606;2022-10-31T14:28:01;13.52;;;5.80;;
4808;SDS011;2418;49.930;8.606;2022-10-31T14:30:50;11.23;;;5.93;;
4808;SDS011;2418;49.930;8.606;2022-10-31T14:33:20;15.82;;;5.80;;
4808;SDS011;2418;49.930;8.606;2022-10-31T14:38:50;11.45;;;5.80;;
4808;SDS011;2418;49.930;8.606;2022-10-31T14:53:01;8.43;;;5.47;;
4808;SDS011;2418;49.930;8.606;2022-10-31T14:55:29;17.40;;;6.00;;
4808;SDS011;2418;49.930;8.606;2022-10-31T14:58:01;10.32;;;5.63;;
4808;SDS011;2418;49.930;8.606;2022-10-31T15:00:32;11.43;;;5.35;;
4808;SDS011;2418;49.930;8.606;2022-10-31T15:05:40;9.13;;;6.35;;
4808;SDS011;2418;49.930;8.606;2022-10-31T15:11:14;16.10;;;5.80;;
4808;SDS011;2418;49.930;8.606;2022-10-31T15:13:43;8.55;;;6.00;;
4808;SDS011;2418;49.930;8.606;2022-10-31T15:16:15;11.60;;;5.80;;
4808;SDS011;2418;49.930;8.606;2022-10-31T15:18:46;10.10;;;5.80;;
4808;SDS011;2418;49.930;8.606;2022-10-31T15:21:26;17.80;;;7.82;;
4808;SDS011;2418;49.930;8.606;2022-10-31T15:23:54;14.50;;;6.70;;
4808;SDS011;2418;49.930;8.606;2022-10-31T15:26:22;14.33;;;7.70;;
4808;SDS011;2418;49.930;8.606;2022-10-31T15:28:58;16.77;;;7.37;;
4808;SDS011;2418;49.930;8.606;2022-10-31T15:31:25;19.20;;;6.70;;
4808;SDS011;2418;49.930;8.606;2022-10-31T15:33:51;16.50;;;6.57;;
4808;SDS011;2418;49.930;8.606;2022-10-31T15:36:20;11.63;;;6.40;;
4808;SDS011;2418;49.930;8.606;2022-10-31T15:38:48;16.47;;;7.10;;
4808;SDS011;2418;49.930;8.606;2022-10-31T15:41:23;11.05;;;7.18;;
4808;SDS011;2418;49.930;8.606;2022-10-31T15:44:21;21.63;;;7.80;;
4808;SDS011;2418;49.930;8.606;2022-10-31T15:46:58;15.52;;;8.10;;
4808;SDS011;2418;49.930;8.606;2022-10-31T15:49:30;16.30;;;9.50;;
4808;SDS011;2418;49.930;8.606;2022-10-31T15:52:47;19.45;;;9.13;;
4808;SDS011;2418;49.930;8.606;2022-10-31T15:55:04;15.27;;;8.45;;
4808;SDS011;2418;49.930;8.606;2022-10-31T15:57:41;16.48;;;8.15;;
4808;SDS011;2418;49.930;8.606;2022-10-31T16:00:29;15.90;;;8.45;;
4808;SDS011;2418;49.930;8.606;2022-10-31T16:05:38;12.48;;;7.18;;
4808;SDS011;2418;49.930;8.606;2022-10-31T16:10:54;18.02;;;7.40;;
4808;SDS011;2418;49.930;8.606;2022-10-31T16:13:32;13.95;;;7.63;;
4808;SDS011;2418;49.930;8.606;2022-10-31T16:16:01;25.83;;;8.75;;
4808;SDS011;2418;49.930;8.606;2022-10-31T16:18:39;17.75;;;8.65;;
4808;SDS011;2418;49.930;8.606;2022-10-31T16:21:09;13.15;;;8.10;;
4808;SDS011;2418;49.930;8.606;2022-10-31T16:23:36;13.98;;;8.07;;
4808;SDS011;2418;49.930;8.606;2022-10-31T16:26:06;14.07;;;7.60;;
4808;SDS011;2418;49.930;8.606;2022-10-31T16:28:33;16.65;;;7.30;;
4808;SDS011;2418;49.930;8.606;2022-10-31T16:31:01;11.02;;;7.20;;
4808;SDS011;2418;49.930;8.606;2022-10-31T16:33:39;13.93;;;7.72;;
4808;SDS011;2418;49.930;8.606;2022-10-31T16:38:53;10.60;;;7.30;;
4808;SDS011;2418;49.930;8.606;2022-10-31T16:41:21;15.00;;;7.45;;
4808;SDS011;2418;49.930;8.606;2022-10-31T16:43:47;23.75;;;7.72;;
4808;SDS011;2418;49.930;8.606;2022-10-31T16:46:23;16.95;;;7.18;;
4808;SDS011;2418;49.930;8.606;2022-10-31T16:48:51;15.15;;;7.20;;
4808;SDS011;2418;49.930;8.606;2022-10-31T16:51:17;17.60;;;8.15;;
4808;SDS011;2418;49.930;8.606;2022-10-31T16:53:43;8.38;;;7.03;;
4808;SDS011;2418;49.930;8.606;2022-10-31T16:56:14;12.77;;;7.30;;
4808;SDS011;2418;49.930;8.606;2022-10-31T16:58:42;29.77;;;8.85;;
4808;SDS011;2418;49.930;8.606;2022-10-31T17:01:08;22.08;;;6.90;;
4808;SDS011;2418;49.930;8.606;2022-10-31T17:03:36;15.27;;;7.20;;
4808;SDS011;2418;49.930;8.606;2022-10-31T17:06:01;10.40;;;7.10;;
4808;SDS011;2418;49.930;8.606;2022-10-31T17:08:27;14.00;;;7.53;;
4808;SDS011;2418;49.930;8.606;2022-10-31T17:10:53;13.17;;;7.40;;
4808;SDS011;2418;49.930;8.606;2022-10-31T17:13:22;15.13;;;8.30;;
4808;SDS011;2418;49.930;8.606;2022-10-31T17:15:52;14.05;;;8.07;;
4808;SDS011;2418;49.930;8.606;2022-10-31T17:18:19;15.23;;;7.70;;
4808;SDS011;2418;49.930;8.606;2022-10-31T17:20:45;19.57;;;8.93;;
4808;SDS011;2418;49.930;8.606;2022-10-31T17:23:12;16.52;;;8.25;;
4808;SDS011;2418;49.930;8.606;2022-10-31T17:25:39;18.40;;;7.90;;
4808;SDS011;2418;49.930;8.606;2022-10-31T17:28:06;22.17;;;9.40;;
4808;SDS011;2418;49.930;8.606;2022-10-31T17:30:34;18.05;;;9.05;;
4808;SDS011;2418;49.930;8.606;2022-10-31T17:33:01;19.45;;;9.05;;
4808;SDS011;2418;49.930;8.606;2022-10-31T17:35:27;18.33;;;8.23;;
4808;SDS011;2418;49.930;8.606;2022-10-31T17:37:52;17.58;;;8.70;;
4808;SDS011;2418;49.930;8.606;2022-10-31T17:40:20;26.60;;;12.55;;
4808;SDS011;2418;49.930;8.606;2022-10-31T17:42:53;19.50;;;13.18;;
4808;SDS011;2418;49.930;8.606;2022-10-31T17:45:21;34.75;;;14.88;;
4808;SDS011;2418;49.930;8.606;2022-10-31T17:47:48;27.02;;;13.25;;
4808;SDS011;2418;49.930;8.606;2022-10-31T17:50:19;15.50;;;10.60;;
4808;SDS011;2418;49.930;8.606;2022-10-31T17:52:46;15.87;;;9.53;;
4808;SDS011;2418;49.930;8.606;2022-10-31T17:55:12;12.93;;;8.43;;